sensor_id;sensor_type;location;lat;lon;timestamp;pressure;altitude;pressure_sealevel;temperature;humidity
48874;BME280;66155;46.204;5.220;2023-03-23T00:02:32;98240.97;;;16.75;47.36
48874;BME280;66155;46.204;5.220;2023-03-23T00:07:35;98252.88;;;16.72;47.09
48874;BME280;66155;46.204;5.220;2023-03-23T00:12:36;98254.09;;;16.66;46.92
48874;BME280;66155;46.204;5.220;2023-03-23T00:17:36;98251.06;;;16.59;46.86
48874;BME280;66155;46.204;5.220;2023-03-23T00:22:37;98253.41;;;16.61;46.73
48874;BME280;66155;46.204;5.220;2023-03-23T00:27:37;98248.06;;;16.52;46.52
48874;BME280;66155;46.204;5.220;2023-03-23T00:32:38;98253.31;;;16.52;46.34
48874;BME280;66155;46.204;5.220;2023-03-23T00:37:38;98258.09;;;16.50;46.08
48874;BME280;66155;46.204;5.220;2023-03-23T00:42:39;98255.16;;;16.51;45.92
48874;BME280;66155;46.204;5.220;2023-03-23T00:47:40;98248.38;;;16.50;45.76
48874;BME280;66155;46.204;5.220;2023-03-23T00:52:41;98250.50;;;16.48;45.35
48874;BME280;66155;46.204;5.220;2023-03-23T00:57:42;98256.25;;;16.50;45.28
48874;BME280;66155;46.204;5.220;2023-03-23T01:02:42;98262.41;;;16.46;45.08
48874;BME280;66155;46.204;5.220;2023-03-23T01:07:45;98249.16;;;16.37;44.91
48874;BME280;66155;46.204;5.220;2023-03-23T01:12:46;98275.47;;;16.37;45.15
48874;BME280;66155;46.204;5.220;2023-03-23T01:17:46;98270.50;;;16.35;44.64
48874;BME280;66155;46.204;5.220;2023-03-23T01:22:47;98280.91;;;16.27;44.99
48874;BME280;66155;46.204;5.220;2023-03-23T01:27:48;98274.88;;;16.26;45.19
48874;BME280;66155;46.204;5.220;2023-03-23T01:32:50;98271.28;;;16.22;45.36
48874;BME280;66155;46.204;5.220;2023-03-23T01:37:50;98268.16;;;16.20;45.19
48874;BME280;66155;46.204;5.220;2023-03-23T01:42:51;98273.53;;;16.15;45.46
48874;BME280;66155;46.204;5.220;2023-03-23T01:47:56;98265.16;;;16.13;45.00
48874;BME280;66155;46.204;5.220;2023-03-23T01:52:59;98259.13;;;16.12;45.09
48874;BME280;66155;46.204;5.220;2023-03-23T01:58:01;98267.00;;;16.12;44.59
48874;BME280;66155;46.204;5.220;2023-03-23T02:03:02;98262.84;;;16.11;44.45
48874;BME280;66155;46.204;5.220;2023-03-23T02:08:04;98262.84;;;16.11;44.32
48874;BME280;66155;46.204;5.220;2023-03-23T02:13:07;98255.03;;;16.06;44.30
48874;BME280;66155;46.204;5.220;2023-03-23T02:18:43;98243.53;;;16.02;44.25
48874;BME280;66155;46.204;5.220;2023-03-23T02:29:35;98246.25;;;15.97;44.25
48874;BME280;66155;46.204;5.220;2023-03-23T02:35:23;98251.03;;;15.95;44.17
48874;BME280;66155;46.204;5.220;2023-03-23T02:40:28;98239.09;;;15.89;44.05
48874;BME280;66155;46.204;5.220;2023-03-23T02:45:33;98232.66;;;15.95;44.15
48874;BME280;66155;46.204;5.220;2023-03-23T02:50:37;98219.59;;;15.90;43.84
48874;BME280;66155;46.204;5.220;2023-03-23T02:55:41;98204.34;;;15.92;43.98
48874;BME280;66155;46.204;5.220;2023-03-23T03:00:42;98203.66;;;15.86;43.91
48874;BME280;66155;46.204;5.220;2023-03-23T03:11:16;98207.06;;;15.87;42.93
48874;BME280;66155;46.204;5.220;2023-03-23T03:16:40;98209.22;;;15.85;42.81
48874;BME280;66155;46.204;5.220;2023-03-23T03:21:44;98208.84;;;15.77;42.65
48874;BME280;66155;46.204;5.220;2023-03-23T03:26:47;98202.78;;;15.77;42.64
48874;BME280;66155;46.204;5.220;2023-03-23T03:31:50;98204.41;;;15.73;42.35
48874;BME280;66155;46.204;5.220;2023-03-23T03:36:54;98190.81;;;15.71;42.32
48874;BME280;66155;46.204;5.220;2023-03-23T03:41:58;98205.38;;;15.63;42.33
48874;BME280;66155;46.204;5.220;2023-03-23T03:46:59;98194.38;;;15.61;42.36
48874;BME280;66155;46.204;5.220;2023-03-23T03:52:00;98199.34;;;15.63;42.15
48874;BME280;66155;46.204;5.220;2023-03-23T03:57:00;98198.88;;;15.61;41.95
48874;BME280;66155;46.204;5.220;2023-03-23T04:02:01;98199.63;;;15.61;41.73
48874;BME280;66155;46.204;5.220;2023-03-23T04:07:02;98196.63;;;15.68;41.60
48874;BME280;66155;46.204;5.220;2023-03-23T04:12:03;98204.22;;;15.69;41.38
48874;BME280;66155;46.204;5.220;2023-03-23T04:17:03;98187.88;;;15.72;41.32
48874;BME280;66155;46.204;5.220;2023-03-23T04:22:04;98191.50;;;15.76;41.27
48874;BME280;66155;46.204;5.220;2023-03-23T04:27:05;98191.84;;;15.70;41.02
48874;BME280;66155;46.204;5.220;2023-03-23T04:32:05;98204.22;;;15.69;41.22
48874;BME280;66155;46.204;5.220;2023-03-23T04:37:07;98206.84;;;15.69;41.07
48874;BME280;66155;46.204;5.220;2023-03-23T04:42:08;98195.88;;;15.67;41.30
48874;BME280;66155;46.204;5.220;2023-03-23T04:47:09;98194.28;;;15.66;40.98
48874;BME280;66155;46.204;5.220;2023-03-23T04:52:10;98195.38;;;15.65;41.08
48874;BME280;66155;46.204;5.220;2023-03-23T04:57:10;98197.22;;;15.65;41.14
48874;BME280;66155;46.204;5.220;2023-03-23T05:02:13;98196.25;;;15.61;40.89
48874;BME280;66155;46.204;5.220;2023-03-23T05:07:14;98200.13;;;15.63;40.81
48874;BME280;66155;46.204;5.220;2023-03-23T05:12:15;98200.63;;;15.65;40.73
48874;BME280;66155;46.204;5.220;2023-03-23T05:17:16;98205.28;;;15.68;40.98
48874;BME280;66155;46.204;5.220;2023-03-23T05:22:17;98200.81;;;15.69;40.73
48874;BME280;66155;46.204;5.220;2023-03-23T05:27:18;98196.28;;;15.74;40.69
48874;BME280;66155;46.204;5.220;2023-03-23T05:32:19;98198.06;;;15.74;40.54
48874;BME280;66155;46.204;5.220;2023-03-23T05:37:19;98213.00;;;15.78;40.45
48874;BME280;66155;46.204;5.220;2023-03-23T05:42:21;98211.47;;;15.77;40.89
48874;BME280;66155;46.204;5.220;2023-03-23T05:47:22;98213.78;;;15.79;40.43
48874;BME280;66155;46.204;5.220;2023-03-23T05:52:23;98218.25;;;15.78;40.56
48874;BME280;66155;46.204;5.220;2023-03-23T05:57:26;98223.31;;;15.75;40.48
48874;BME280;66155;46.204;5.220;2023-03-23T06:02:27;98220.41;;;15.76;40.58
48874;BME280;66155;46.204;5.220;2023-03-23T06:07:29;98231.88;;;15.81;40.84
48874;BME280;66155;46.204;5.220;2023-03-23T06:12:30;98230.63;;;15.78;40.75
48874;BME280;66155;46.204;5.220;2023-03-23T06:17:31;98229.53;;;15.79;40.55
48874;BME280;66155;46.204;5.220;2023-03-23T06:22:32;98238.50;;;15.78;40.22
48874;BME280;66155;46.204;5.220;2023-03-23T06:27:33;98243.75;;;15.78;40.48
48874;BME280;66155;46.204;5.220;2023-03-23T06:32:35;98238.50;;;15.78;40.47
48874;BME280;66155;46.204;5.220;2023-03-23T06:37:36;98238.00;;;15.76;40.45
48874;BME280;66155;46.204;5.220;2023-03-23T06:42:38;98242.19;;;15.77;40.58
48874;BME280;66155;46.204;5.220;2023-03-23T06:47:39;98235.94;;;15.73;40.76
48874;BME280;66155;46.204;5.220;2023-03-23T06:52:39;98256.69;;;15.74;40.94
48874;BME280;66155;46.204;5.220;2023-03-23T06:57:40;98279.81;;;15.72;41.37
48874;BME280;66155;46.204;5.220;2023-03-23T07:02:42;98285.59;;;15.74;41.76
48874;BME280;66155;46.204;5.220;2023-03-23T07:07:43;98250.25;;;15.81;41.39
48874;BME280;66155;46.204;5.220;2023-03-23T07:12:43;98253.38;;;15.83;42.00
48874;BME280;66155;46.204;5.220;2023-03-23T07:17:43;98253.38;;;15.83;41.81
48874;BME280;66155;46.204;5.220;2023-03-23T07:22:45;98246.78;;;15.85;41.65
48874;BME280;66155;46.204;5.220;2023-03-23T07:27:46;98249.41;;;15.85;41.93
48874;BME280;66155;46.204;5.220;2023-03-23T07:32:46;98252.22;;;15.89;41.98
48874;BME280;66155;46.204;5.220;2023-03-23T07:37:47;98241.72;;;15.89;42.04
48874;BME280;66155;46.204;5.220;2023-03-23T07:42:56;98246.97;;;15.89;41.73
48874;BME280;66155;46.204;5.220;2023-03-23T07:47:57;98229.53;;;15.93;41.95
48874;BME280;66155;46.204;5.220;2023-03-23T07:52:58;98251.31;;;15.93;41.51
48874;BME280;66155;46.204;5.220;2023-03-23T07:57:58;98242.78;;;16.02;41.74
48874;BME280;66155;46.204;5.220;2023-03-23T08:02:59;98264.94;;;16.09;41.71
48874;BME280;66155;46.204;5.220;2023-03-23T08:08:00;98267.97;;;16.16;41.24
48874;BME280;66155;46.204;5.220;2023-03-23T08:13:01;98277.41;;;16.18;41.23
48874;BME280;66155;46.204;5.220;2023-03-23T08:18:02;98273.81;;;16.27;41.00
48874;BME280;66155;46.204;5.220;2023-03-23T08:23:03;98275.06;;;16.30;41.07
48874;BME280;66155;46.204;5.220;2023-03-23T08:28:04;98275.06;;;16.30;40.89
48874;BME280;66155;46.204;5.220;2023-03-23T08:33:05;98275.06;;;16.44;40.20
48874;BME280;66155;46.204;5.220;2023-03-23T08:38:06;98273.41;;;16.48;39.97
48874;BME280;66155;46.204;5.220;2023-03-23T08:43:06;98267.44;;;16.56;39.74
48874;BME280;66155;46.204;5.220;2023-03-23T08:48:07;98258.66;;;16.61;39.21
48874;BME280;66155;46.204;5.220;2023-03-23T08:53:07;98263.31;;;16.64;39.44
48874;BME280;66155;46.204;5.220;2023-03-23T08:58:08;98290.97;;;16.75;39.29
48874;BME280;66155;46.204;5.220;2023-03-23T09:03:08;98328.09;;;16.87;39.39
48874;BME280;66155;46.204;5.220;2023-03-23T09:08:09;98344.06;;;16.91;39.27
48874;BME280;66155;46.204;5.220;2023-03-23T09:13:10;98368.34;;;16.88;39.77
48874;BME280;66155;46.204;5.220;2023-03-23T09:18:10;98364.44;;;16.85;40.48
48874;BME280;66155;46.204;5.220;2023-03-23T09:23:11;98372.13;;;16.68;40.88
48874;BME280;66155;46.204;5.220;2023-03-23T09:28:13;98377.59;;;16.71;40.79
48874;BME280;66155;46.204;5.220;2023-03-23T09:33:14;98381.19;;;16.76;41.35
48874;BME280;66155;46.204;5.220;2023-03-23T09:38:14;98389.00;;;16.67;41.77
48874;BME280;66155;46.204;5.220;2023-03-23T09:48:57;98373.09;;;16.86;41.87
48874;BME280;66155;46.204;5.220;2023-03-23T09:54:04;98375.13;;;17.03;41.75
48874;BME280;66155;46.204;5.220;2023-03-23T10:04:39;98364.50;;;17.08;41.73
48874;BME280;66155;46.204;5.220;2023-03-23T10:09:43;98381.09;;;16.95;41.91
48874;BME280;66155;46.204;5.220;2023-03-23T10:20:30;98374.75;;;16.82;41.52
48874;BME280;66155;46.204;5.220;2023-03-23T10:25:36;98383.53;;;16.91;41.35
48874;BME280;66155;46.204;5.220;2023-03-23T10:30:40;98387.22;;;17.04;41.35
48874;BME280;66155;46.204;5.220;2023-03-23T10:41:10;98397.88;;;17.21;42.67
48874;BME280;66155;46.204;5.220;2023-03-23T10:46:29;98394.56;;;17.29;42.38
48874;BME280;66155;46.204;5.220;2023-03-23T10:51:41;98382.00;;;17.49;41.90
48874;BME280;66155;46.204;5.220;2023-03-23T10:56:44;98401.56;;;17.57;41.81
48874;BME280;66155;46.204;5.220;2023-03-23T11:01:49;98401.00;;;17.60;41.67
48874;BME280;66155;46.204;5.220;2023-03-23T11:06:53;98386.28;;;17.59;42.34
48874;BME280;66155;46.204;5.220;2023-03-23T11:11:57;98368.66;;;17.68;42.36
48874;BME280;66155;46.204;5.220;2023-03-23T11:17:03;98365.91;;;17.73;42.35
48874;BME280;66155;46.204;5.220;2023-03-23T11:27:08;98372.19;;;17.63;42.39
48874;BME280;66155;46.204;5.220;2023-03-23T11:32:11;98363.56;;;17.72;42.70
48874;BME280;66155;46.204;5.220;2023-03-23T11:47:37;98374.56;;;17.74;43.37
48874;BME280;66155;46.204;5.220;2023-03-23T11:52:41;98356.91;;;17.74;43.38
48874;BME280;66155;46.204;5.220;2023-03-23T11:57:43;98356.78;;;17.79;43.40
48874;BME280;66155;46.204;5.220;2023-03-23T12:29:30;98343.09;;;18.40;44.79
48874;BME280;66155;46.204;5.220;2023-03-23T12:35:02;98313.94;;;18.45;44.16
48874;BME280;66155;46.204;5.220;2023-03-23T12:50:35;98337.16;;;18.83;42.91
48874;BME280;66155;46.204;5.220;2023-03-23T12:56:06;98327.06;;;19.11;42.69
48874;BME280;66155;46.204;5.220;2023-03-23T13:01:22;98306.09;;;19.32;42.46
48874;BME280;66155;46.204;5.220;2023-03-23T13:11:36;98292.94;;;19.71;41.92
48874;BME280;66155;46.204;5.220;2023-03-23T13:22:06;98286.69;;;19.84;40.93
48874;BME280;66155;46.204;5.220;2023-03-23T13:27:09;98269.16;;;19.71;41.08
48874;BME280;66155;46.204;5.220;2023-03-23T13:32:15;98252.72;;;19.65;40.61
48874;BME280;66155;46.204;5.220;2023-03-23T13:37:24;98238.63;;;19.52;40.87
48874;BME280;66155;46.204;5.220;2023-03-23T13:42:30;98239.25;;;19.41;40.99
48874;BME280;66155;46.204;5.220;2023-03-23T13:47:40;98249.38;;;19.38;41.23
48874;BME280;66155;46.204;5.220;2023-03-23T14:13:39;98218.06;;;18.85;43.15
48874;BME280;66155;46.204;5.220;2023-03-23T14:18:42;98208.31;;;18.85;42.78
48874;BME280;66155;46.204;5.220;2023-03-23T14:23:47;98208.22;;;19.20;42.47
48874;BME280;66155;46.204;5.220;2023-03-23T14:28:50;98199.28;;;19.51;41.89
48874;BME280;66155;46.204;5.220;2023-03-23T14:33:54;98195.75;;;19.85;41.48
48874;BME280;66155;46.204;5.220;2023-03-23T14:39:04;98176.78;;;20.88;39.22
48874;BME280;66155;46.204;5.220;2023-03-23T14:44:10;98180.66;;;21.86;38.54
48874;BME280;66155;46.204;5.220;2023-03-23T14:49:19;98182.59;;;21.27;38.61
48874;BME280;66155;46.204;5.220;2023-03-23T14:54:26;98171.19;;;20.48;39.92
48874;BME280;66155;46.204;5.220;2023-03-23T14:59:27;98179.56;;;19.87;40.78
48874;BME280;66155;46.204;5.220;2023-03-23T15:04:28;98180.09;;;19.63;41.66
48874;BME280;66155;46.204;5.220;2023-03-23T15:09:29;98179.69;;;19.52;42.39
48874;BME280;66155;46.204;5.220;2023-03-23T15:14:34;98160.47;;;19.72;42.43
48874;BME280;66155;46.204;5.220;2023-03-23T15:19:40;98169.50;;;19.71;42.38
48874;BME280;66155;46.204;5.220;2023-03-23T15:24:42;98160.63;;;19.37;43.25
48874;BME280;66155;46.204;5.220;2023-03-23T15:29:53;98159.72;;;19.33;43.71
48874;BME280;66155;46.204;5.220;2023-03-23T15:34:55;98142.69;;;19.52;43.36
48874;BME280;66155;46.204;5.220;2023-03-23T15:39:57;98135.38;;;19.57;43.61
48874;BME280;66155;46.204;5.220;2023-03-23T15:45:50;98125.72;;;19.32;43.97
48874;BME280;66155;46.204;5.220;2023-03-23T15:55:29;98112.31;;;18.98;44.99
48874;BME280;66155;46.204;5.220;2023-03-23T16:00:30;98128.03;;;18.86;45.55
48874;BME280;66155;46.204;5.220;2023-03-23T16:05:31;98126.94;;;18.78;46.20
48874;BME280;66155;46.204;5.220;2023-03-23T16:10:32;98093.13;;;18.63;46.82
48874;BME280;66155;46.204;5.220;2023-03-23T16:15:33;98102.94;;;18.45;47.51
48874;BME280;66155;46.204;5.220;2023-03-23T16:20:34;98103.56;;;18.33;48.26
48874;BME280;66155;46.204;5.220;2023-03-23T16:25:35;98090.50;;;18.37;48.10
48874;BME280;66155;46.204;5.220;2023-03-23T16:30:37;98080.31;;;18.27;48.70
48874;BME280;66155;46.204;5.220;2023-03-23T16:35:38;98087.44;;;18.17;49.43
48874;BME280;66155;46.204;5.220;2023-03-23T16:40:39;98084.63;;;18.14;49.54
48874;BME280;66155;46.204;5.220;2023-03-23T16:45:41;98082.50;;;18.07;49.84
48874;BME280;66155;46.204;5.220;2023-03-23T16:50:43;98093.63;;;17.95;50.72
48874;BME280;66155;46.204;5.220;2023-03-23T16:55:43;98083.50;;;17.80;50.93
48874;BME280;66155;46.204;5.220;2023-03-23T17:00:49;98099.78;;;17.64;50.95
48874;BME280;66155;46.204;5.220;2023-03-23T17:05:51;98094.81;;;17.63;51.07
48874;BME280;66155;46.204;5.220;2023-03-23T17:10:52;98089.84;;;17.61;51.32
48874;BME280;66155;46.204;5.220;2023-03-23T17:15:54;98102.81;;;17.49;51.71
48874;BME280;66155;46.204;5.220;2023-03-23T17:20:55;98097.56;;;17.49;51.68
48874;BME280;66155;46.204;5.220;2023-03-23T17:25:56;98104.06;;;17.43;52.01
48874;BME280;66155;46.204;5.220;2023-03-23T17:30:58;98093.50;;;17.34;52.67
48874;BME280;66155;46.204;5.220;2023-03-23T17:35:58;98093.16;;;17.27;52.66
48874;BME280;66155;46.204;5.220;2023-03-23T17:41:00;98099.94;;;17.19;53.48
48874;BME280;66155;46.204;5.220;2023-03-23T17:46:01;98089.06;;;17.12;54.05
48874;BME280;66155;46.204;5.220;2023-03-23T17:51:02;98098.38;;;17.09;53.81
48874;BME280;66155;46.204;5.220;2023-03-23T17:56:04;98090.13;;;17.02;54.33
48874;BME280;66155;46.204;5.220;2023-03-23T18:01:05;98092.72;;;16.94;54.44
48874;BME280;66155;46.204;5.220;2023-03-23T18:06:07;98090.22;;;16.88;55.06
48874;BME280;66155;46.204;5.220;2023-03-23T18:11:08;98088.06;;;16.90;54.91
48874;BME280;66155;46.204;5.220;2023-03-23T18:16:09;98092.84;;;16.88;55.10
48874;BME280;66155;46.204;5.220;2023-03-23T18:21:09;98110.88;;;16.81;55.54
48874;BME280;66155;46.204;5.220;2023-03-23T18:26:12;98090.34;;;16.83;55.42
48874;BME280;66155;46.204;5.220;2023-03-23T18:31:14;98101.25;;;16.77;56.13
48874;BME280;66155;46.204;5.220;2023-03-23T18:36:18;98100.78;;;16.75;55.71
48874;BME280;66155;46.204;5.220;2023-03-23T18:41:19;98099.38;;;16.68;56.15
48874;BME280;66155;46.204;5.220;2023-03-23T18:46:20;98113.28;;;16.69;56.04
48874;BME280;66155;46.204;5.220;2023-03-23T18:51:21;98105.88;;;16.71;56.41
48874;BME280;66155;46.204;5.220;2023-03-23T18:56:21;98097.31;;;16.65;56.40
48874;BME280;66155;46.204;5.220;2023-03-23T19:01:22;98108.44;;;16.62;56.63
48874;BME280;66155;46.204;5.220;2023-03-23T19:06:24;98114.63;;;16.58;56.72
48874;BME280;66155;46.204;5.220;2023-03-23T19:11:26;98127.78;;;16.58;56.81
48874;BME280;66155;46.204;5.220;2023-03-23T19:16:27;98127.59;;;16.54;57.19
48874;BME280;66155;46.204;5.220;2023-03-23T19:21:29;98125.72;;;16.54;56.81
48874;BME280;66155;46.204;5.220;2023-03-23T19:26:35;98137.56;;;16.43;57.35
48874;BME280;66155;46.204;5.220;2023-03-23T19:31:37;98138.84;;;16.32;58.18
48874;BME280;66155;46.204;5.220;2023-03-23T19:36:38;98142.38;;;16.27;58.69
48874;BME280;66155;46.204;5.220;2023-03-23T19:41:38;98135.84;;;16.25;58.27
48874;BME280;66155;46.204;5.220;2023-03-23T19:46:39;98134.09;;;16.20;58.88
48874;BME280;66155;46.204;5.220;2023-03-23T19:51:39;98116.91;;;16.14;59.03
48874;BME280;66155;46.204;5.220;2023-03-23T19:56:40;98087.81;;;16.10;59.38
48874;BME280;66155;46.204;5.220;2023-03-23T20:01:42;98082.59;;;15.96;60.18
48874;BME280;66155;46.204;5.220;2023-03-23T20:06:43;98052.28;;;15.90;60.42
48874;BME280;66155;46.204;5.220;2023-03-23T20:11:44;98020.84;;;15.85;60.85
48874;BME280;66155;46.204;5.220;2023-03-23T20:16:44;98027.00;;;15.81;61.22
48874;BME280;66155;46.204;5.220;2023-03-23T20:21:45;98050.75;;;15.75;61.26
48874;BME280;66155;46.204;5.220;2023-03-23T20:26:45;98064.75;;;15.71;61.53
48874;BME280;66155;46.204;5.220;2023-03-23T20:31:46;98054.06;;;15.67;61.48
48874;BME280;66155;46.204;5.220;2023-03-23T20:36:46;98054.63;;;15.64;61.54
48874;BME280;66155;46.204;5.220;2023-03-23T20:41:50;98047.94;;;15.58;61.42
48874;BME280;66155;46.204;5.220;2023-03-23T20:46:53;98105.72;;;15.58;61.47
48874;BME280;66155;46.204;5.220;2023-03-23T20:51:55;98087.19;;;15.63;61.60
48874;BME280;66155;46.204;5.220;2023-03-23T20:56:56;98089.25;;;15.66;61.16
48874;BME280;66155;46.204;5.220;2023-03-23T21:02:00;98088.09;;;15.58;61.17
48874;BME280;66155;46.204;5.220;2023-03-23T21:07:00;98088.59;;;15.61;61.17
48874;BME280;66155;46.204;5.220;2023-03-23T21:12:01;98088.28;;;15.62;61.26
48874;BME280;66155;46.204;5.220;2023-03-23T21:17:06;98093.06;;;15.60;61.09
48874;BME280;66155;46.204;5.220;2023-03-23T21:22:06;98096.47;;;15.61;60.95
48874;BME280;66155;46.204;5.220;2023-03-23T21:27:09;98103.28;;;15.62;60.75
48874;BME280;66155;46.204;5.220;2023-03-23T21:32:09;98110.97;;;15.58;60.90
48874;BME280;66155;46.204;5.220;2023-03-23T21:37:10;98105.09;;;15.61;60.58
48874;BME280;66155;46.204;5.220;2023-03-23T21:42:11;98105.72;;;15.58;60.85
48874;BME280;66155;46.204;5.220;2023-03-23T21:47:15;98107.16;;;15.50;61.55
48874;BME280;66155;46.204;5.220;2023-03-23T21:52:17;98121.19;;;15.46;62.11
48874;BME280;66155;46.204;5.220;2023-03-23T21:57:18;98106.38;;;15.36;62.23
48874;BME280;66155;46.204;5.220;2023-03-23T22:02:19;98122.22;;;15.31;62.02
48874;BME280;66155;46.204;5.220;2023-03-23T22:07:19;98130.28;;;15.34;61.77
48874;BME280;66155;46.204;5.220;2023-03-23T22:12:23;98159.44;;;15.33;61.76
48874;BME280;66155;46.204;5.220;2023-03-23T22:17:23;98135.53;;;15.34;61.64
48874;BME280;66155;46.204;5.220;2023-03-23T22:22:24;98072.16;;;15.27;61.83
48874;BME280;66155;46.204;5.220;2023-03-23T22:27:25;98099.59;;;15.21;61.29
48874;BME280;66155;46.204;5.220;2023-03-23T22:32:25;98091.41;;;15.23;60.59
48874;BME280;66155;46.204;5.220;2023-03-23T22:37:26;98096.47;;;15.19;59.82
48874;BME280;66155;46.204;5.220;2023-03-23T22:42:26;98091.50;;;15.17;59.26
48874;BME280;66155;46.204;5.220;2023-03-23T22:47:27;98062.84;;;15.21;58.37
48874;BME280;66155;46.204;5.220;2023-03-23T22:52:29;98101.13;;;15.22;58.31
48874;BME280;66155;46.204;5.220;2023-03-23T22:57:30;98087.72;;;15.24;57.90
48874;BME280;66155;46.204;5.220;2023-03-23T23:02:31;98105.31;;;15.23;57.60
48874;BME280;66155;46.204;5.220;2023-03-23T23:07:31;98070.13;;;15.24;57.54
48874;BME280;66155;46.204;5.220;2023-03-23T23:12:31;98077.31;;;15.18;57.25
48874;BME280;66155;46.204;5.220;2023-03-23T23:17:34;98080.72;;;15.19;57.09
48874;BME280;66155;46.204;5.220;2023-03-23T23:22:40;98042.22;;;15.14;56.01
48874;BME280;66155;46.204;5.220;2023-03-23T23:27:41;98030.97;;;15.14;55.62
48874;BME280;66155;46.204;5.220;2023-03-23T23:32:41;98021.81;;;15.11;55.19
48874;BME280;66155;46.204;5.220;2023-03-23T23:37:43;98019.91;;;15.03;54.35
48874;BME280;66155;46.204;5.220;2023-03-23T23:42:46;98047.75;;;14.99;54.51
48874;BME280;66155;46.204;5.220;2023-03-23T23:47:48;98072.03;;;15.05;54.44
48874;BME280;66155;46.204;5.220;2023-03-23T23:52:48;98033.31;;;15.01;53.98
48874;BME280;66155;46.204;5.220;2023-03-23T23:57:49;98032.31;;;14.97;53.01
